Terminal Aerodrome Forecast
Issued by NWS Pendleton, OR

Home | Current Version | Previous Version | Text Only | Print | Product List | Glossary On
Versions: 1 2 3 4 5 6 7 8 9 10 11 12 13 14 15 16 17 18 19 20 21 22 23 24 25 26
000
FTUS46 KPDT 191124
TAFPDT
TAF
KPDT 191124Z 1912/2012 15008KT P6SM FEW090 SCT150
     FM191700 28009KT P6SM VCSH BKN070
     FM192100 28013KT P6SM -SHRA SCT050 OVC070
     FM200200 27010KT P6SM -SHRA OVC050
     FM200700 25008KT P6SM -SHRA BKN035 OVC050=

USA.gov is the U.S. government's official web portal to all federal, state and local government web resources and services.